sensor_id;sensor_type;location;lat;lon;timestamp;pressure;altitude;pressure_sealevel;temperature;humidity
12913;BME280;6524;51.368;11.984;2024-01-30T00:03:24;152508.09;;;3.43;60.27
12913;BME280;6524;51.368;11.984;2024-01-30T00:08:25;152553.53;;;3.61;59.66
12913;BME280;6524;51.368;11.984;2024-01-30T00:13:26;152532.75;;;3.53;60.24
12913;BME280;6524;51.368;11.984;2024-01-30T00:18:26;152543.16;;;3.57;60.57
12913;BME280;6524;51.368;11.984;2024-01-30T00:23:26;152587.25;;;3.74;59.56
12913;BME280;6524;51.368;11.984;2024-01-30T00:28:27;152582.09;;;3.72;59.47
12913;BME280;6524;51.368;11.984;2024-01-30T00:33:27;152541.88;;;3.56;60.24
12913;BME280;6524;51.368;11.984;2024-01-30T00:38:27;152623.59;;;3.88;58.79
12913;BME280;6524;51.368;11.984;2024-01-30T00:43:28;152662.53;;;4.04;58.26
12913;BME280;6524;51.368;11.984;2024-01-30T00:48:28;152644.38;;;3.96;58.07
12913;BME280;6524;51.368;11.984;2024-01-30T00:53:28;152644.38;;;3.96;57.59
12913;BME280;6524;51.368;11.984;2024-01-30T00:58:29;152584.66;;;3.73;58.40
12913;BME280;6524;51.368;11.984;2024-01-30T01:03:29;152601.53;;;3.80;58.11
12913;BME280;6524;51.368;11.984;2024-01-30T01:08:29;152589.88;;;3.75;57.87
12913;BME280;6524;51.368;11.984;2024-01-30T01:13:30;152618.41;;;3.86;57.71
12913;BME280;6524;51.368;11.984;2024-01-30T01:18:30;152632.69;;;3.92;57.12
12913;BME280;6524;51.368;11.984;2024-01-30T01:23:30;152644.38;;;3.96;57.05
12913;BME280;6524;51.368;11.984;2024-01-30T01:28:31;152658.63;;;4.02;57.10
12913;BME280;6524;51.368;11.984;2024-01-30T01:33:32;152635.25;;;3.93;57.05
12913;BME280;6524;51.368;11.984;2024-01-30T01:38:33;152633.97;;;3.92;57.04
12913;BME280;6524;51.368;11.984;2024-01-30T01:43:33;152569.09;;;3.67;57.28
12913;BME280;6524;51.368;11.984;2024-01-30T01:48:33;152580.81;;;3.71;57.28
12913;BME280;6524;51.368;11.984;2024-01-30T01:53:34;152646.97;;;3.98;56.40
12913;BME280;6524;51.368;11.984;2024-01-30T01:58:35;152569.09;;;3.67;57.06
12913;BME280;6524;51.368;11.984;2024-01-30T02:03:35;152527.59;;;3.50;57.48
12913;BME280;6524;51.368;11.984;2024-01-30T02:08:37;152537.94;;;3.55;57.58
12913;BME280;6524;51.368;11.984;2024-01-30T02:13:37;152514.59;;;3.45;57.68
12913;BME280;6524;51.368;11.984;2024-01-30T02:18:38;152517.22;;;3.46;58.16
12913;BME280;6524;51.368;11.984;2024-01-30T02:23:44;152514.59;;;3.45;57.63
12913;BME280;6524;51.368;11.984;2024-01-30T02:28:45;152457.53;;;3.23;58.32
12913;BME280;6524;51.368;11.984;2024-01-30T02:33:45;152476.97;;;3.31;58.34
12913;BME280;6524;51.368;11.984;2024-01-30T02:38:45;152504.22;;;3.41;57.66
12913;BME280;6524;51.368;11.984;2024-01-30T02:43:46;152457.53;;;3.23;58.59
12913;BME280;6524;51.368;11.984;2024-01-30T02:48:47;152478.31;;;3.31;57.89
12913;BME280;6524;51.368;11.984;2024-01-30T02:53:47;152465.31;;;3.26;58.11
12913;BME280;6524;51.368;11.984;2024-01-30T02:58:47;152486.09;;;3.34;58.12
12913;BME280;6524;51.368;11.984;2024-01-30T03:03:48;152470.50;;;3.28;57.91
12913;BME280;6524;51.368;11.984;2024-01-30T03:08:48;152434.16;;;3.14;58.38
12913;BME280;6524;51.368;11.984;2024-01-30T03:13:48;152377.13;;;2.91;59.64
12913;BME280;6524;51.368;11.984;2024-01-30T03:18:49;152358.97;;;2.84;60.04
12913;BME280;6524;51.368;11.984;2024-01-30T03:23:49;152368.03;;;2.88;59.46
12913;BME280;6524;51.368;11.984;2024-01-30T03:28:49;152338.22;;;2.76;59.92
12913;BME280;6524;51.368;11.984;2024-01-30T03:33:50;152340.78;;;2.77;60.45
12913;BME280;6524;51.368;11.984;2024-01-30T03:38:50;152288.94;;;2.56;60.70
12913;BME280;6524;51.368;11.984;2024-01-30T03:43:50;152281.16;;;2.53;60.95
12913;BME280;6524;51.368;11.984;2024-01-30T03:48:50;152255.25;;;2.43;61.03
12913;BME280;6524;51.368;11.984;2024-01-30T03:53:51;152187.78;;;2.17;61.85
12913;BME280;6524;51.368;11.984;2024-01-30T03:58:51;152146.31;;;2.00;62.21
12913;BME280;6524;51.368;11.984;2024-01-30T04:03:51;152112.63;;;1.87;63.40
12913;BME280;6524;51.368;11.984;2024-01-30T05:00:34;151791.44;;;0.60;65.72
12913;BME280;6524;51.368;11.984;2024-01-30T05:05:34;151801.81;;;0.64;65.71
12913;BME280;6524;51.368;11.984;2024-01-30T05:10:34;151782.38;;;0.57;66.38
12913;BME280;6524;51.368;11.984;2024-01-30T05:15:35;151755.22;;;0.46;66.18
12913;BME280;6524;51.368;11.984;2024-01-30T05:20:35;151775.91;;;0.54;66.03
12913;BME280;6524;51.368;11.984;2024-01-30T05:25:35;151734.50;;;0.38;66.60
12913;BME280;6524;51.368;11.984;2024-01-30T05:30:35;151766.84;;;0.51;65.75
12913;BME280;6524;51.368;11.984;2024-01-30T05:35:36;151757.78;;;0.47;66.43
12913;BME280;6524;51.368;11.984;2024-01-30T05:40:37;151750.03;;;0.44;66.61
12913;BME280;6524;51.368;11.984;2024-01-30T05:45:38;151775.91;;;0.54;66.05
12913;BME280;6524;51.368;11.984;2024-01-30T05:50:38;151856.16;;;0.86;65.35
12913;BME280;6524;51.368;11.984;2024-01-30T05:55:38;151805.69;;;0.66;65.79
12913;BME280;6524;51.368;11.984;2024-01-30T06:00:39;151809.53;;;0.67;65.72
12913;BME280;6524;51.368;11.984;2024-01-30T06:05:39;151863.94;;;0.89;65.19
12913;BME280;6524;51.368;11.984;2024-01-30T06:10:39;151856.16;;;0.86;64.39
12913;BME280;6524;51.368;11.984;2024-01-30T06:15:40;151843.25;;;0.81;64.67
12913;BME280;6524;51.368;11.984;2024-01-30T06:20:40;151832.84;;;0.77;64.64
12913;BME280;6524;51.368;11.984;2024-01-30T06:25:41;151845.81;;;0.82;65.17
12913;BME280;6524;51.368;11.984;2024-01-30T06:30:41;151812.16;;;0.68;65.32
12913;BME280;6524;51.368;11.984;2024-01-30T06:35:41;151832.84;;;0.77;64.81
12913;BME280;6524;51.368;11.984;2024-01-30T06:40:42;151830.28;;;0.76;64.88
12913;BME280;6524;51.368;11.984;2024-01-30T06:45:42;151797.91;;;0.63;65.30
12913;BME280;6524;51.368;11.984;2024-01-30T06:50:43;151817.31;;;0.70;64.67
12913;BME280;6524;51.368;11.984;2024-01-30T06:55:43;151862.63;;;0.88;64.22
12913;BME280;6524;51.368;11.984;2024-01-30T07:00:44;151928.66;;;1.14;66.11
12913;BME280;6524;51.368;11.984;2024-01-30T07:05:44;152133.34;;;1.95;64.28
12913;BME280;6524;51.368;11.984;2024-01-30T07:10:44;152331.72;;;2.73;59.63
12913;BME280;6524;51.368;11.984;2024-01-30T07:15:45;152672.91;;;4.08;54.85
12913;BME280;6524;51.368;11.984;2024-01-30T07:20:45;152636.59;;;3.93;53.91
12913;BME280;6524;51.368;11.984;2024-01-30T07:25:49;152721.00;;;4.27;53.28
12913;BME280;6524;51.368;11.984;2024-01-30T07:30:49;152689.78;;;4.14;51.89
12913;BME280;6524;51.368;11.984;2024-01-30T07:35:52;152675.50;;;4.09;51.44
12913;BME280;6524;51.368;11.984;2024-01-30T07:40:52;152656.06;;;4.01;51.83
12913;BME280;6524;51.368;11.984;2024-01-30T07:45:53;152617.09;;;3.86;51.26
12913;BME280;6524;51.368;11.984;2024-01-30T07:50:53;152646.97;;;3.98;50.60
12913;BME280;6524;51.368;11.984;2024-01-30T07:55:53;152665.13;;;4.05;50.76
12913;BME280;6524;51.368;11.984;2024-01-30T08:00:54;152623.59;;;3.88;51.40
12913;BME280;6524;51.368;11.984;2024-01-30T08:05:54;152852.16;;;4.78;49.49
12913;BME280;6524;51.368;11.984;2024-01-30T08:10:55;152901.50;;;4.98;48.65
12913;BME280;6524;51.368;11.984;2024-01-30T08:15:55;153005.44;;;5.39;48.05
12913;BME280;6524;51.368;11.984;2024-01-30T08:20:56;153054.81;;;5.58;47.50
12913;BME280;6524;51.368;11.984;2024-01-30T08:25:56;153117.19;;;5.82;46.76
12913;BME280;6524;51.368;11.984;2024-01-30T08:30:56;153160.13;;;5.99;46.38
12913;BME280;6524;51.368;11.984;2024-01-30T08:35:57;153158.81;;;5.99;46.83
12913;BME280;6524;51.368;11.984;2024-01-30T08:40:57;153203.06;;;6.16;46.05
12913;BME280;6524;51.368;11.984;2024-01-30T08:46:00;153257.63;;;6.38;46.26
12913;BME280;6524;51.368;11.984;2024-01-30T08:51:01;153317.47;;;6.61;46.32
12913;BME280;6524;51.368;11.984;2024-01-30T08:56:02;153281.03;;;6.47;45.95
12913;BME280;6524;51.368;11.984;2024-01-30T09:01:03;153310.94;;;6.59;45.76
12913;BME280;6524;51.368;11.984;2024-01-30T09:06:09;153240.72;;;6.31;46.17
12913;BME280;6524;51.368;11.984;2024-01-30T09:11:14;153346.09;;;6.72;45.80
12913;BME280;6524;51.368;11.984;2024-01-30T09:16:15;153372.09;;;6.83;45.67
12913;BME280;6524;51.368;11.984;2024-01-30T09:21:16;153455.34;;;7.15;45.43
12913;BME280;6524;51.368;11.984;2024-01-30T09:26:17;153536.06;;;7.47;44.53
12913;BME280;6524;51.368;11.984;2024-01-30T09:31:17;153606.34;;;7.75;44.67
12913;BME280;6524;51.368;11.984;2024-01-30T09:36:18;153697.50;;;8.10;43.86
12913;BME280;6524;51.368;11.984;2024-01-30T09:41:23;153754.78;;;8.33;43.14
12913;BME280;6524;51.368;11.984;2024-01-30T09:46:27;153990.59;;;9.25;41.05
12913;BME280;6524;51.368;11.984;2024-01-30T09:51:29;154012.75;;;9.34;41.14
12913;BME280;6524;51.368;11.984;2024-01-30T09:56:30;154094.84;;;9.66;40.50
12913;BME280;6524;51.368;11.984;2024-01-30T10:01:31;154158.78;;;9.91;40.03
12913;BME280;6524;51.368;11.984;2024-01-30T10:06:32;154366.13;;;10.73;38.73
12913;BME280;6524;51.368;11.984;2024-01-30T10:11:32;154166.59;;;9.94;39.91
12913;BME280;6524;51.368;11.984;2024-01-30T10:16:34;153943.66;;;9.07;42.14
12913;BME280;6524;51.368;11.984;2024-01-30T10:21:38;153994.53;;;9.27;42.35
12913;BME280;6524;51.368;11.984;2024-01-30T10:26:38;153911.09;;;8.94;43.26
12913;BME280;6524;51.368;11.984;2024-01-30T10:31:39;153822.53;;;8.60;43.49
12913;BME280;6524;51.368;11.984;2024-01-30T10:36:40;153778.22;;;8.42;44.11
12913;BME280;6524;51.368;11.984;2024-01-30T10:41:44;153702.66;;;8.12;45.40
12913;BME280;6524;51.368;11.984;2024-01-30T10:46:51;153814.72;;;8.56;45.10
12913;BME280;6524;51.368;11.984;2024-01-30T10:51:57;153775.59;;;8.41;44.85
12913;BME280;6524;51.368;11.984;2024-01-30T10:57:00;153879.84;;;8.82;44.59
12913;BME280;6524;51.368;11.984;2024-01-30T11:02:02;153813.41;;;8.56;44.78
12913;BME280;6524;51.368;11.984;2024-01-30T11:07:25;153885.06;;;8.84;45.05
12913;BME280;6524;51.368;11.984;2024-01-30T11:12:30;153981.47;;;9.22;45.13
12913;BME280;6524;51.368;11.984;2024-01-30T11:22:51;154422.28;;;10.95;42.25
12913;BME280;6524;51.368;11.984;2024-01-30T11:27:55;154437.94;;;11.01;42.32
12913;BME280;6524;51.368;11.984;2024-01-30T11:33:06;154631.06;;;11.76;41.55
12913;BME280;6524;51.368;11.984;2024-01-30T11:38:18;154364.84;;;10.72;43.43
12913;BME280;6524;51.368;11.984;2024-01-30T11:43:20;154154.88;;;9.90;45.20
12913;BME280;6524;51.368;11.984;2024-01-30T11:48:21;154143.13;;;9.85;46.10
12913;BME280;6524;51.368;11.984;2024-01-30T11:53:21;154196.59;;;10.06;45.77
12913;BME280;6524;51.368;11.984;2024-01-30T11:58:26;154064.91;;;9.55;46.37
12913;BME280;6524;51.368;11.984;2024-01-30T12:03:30;154064.91;;;9.55;47.23
12913;BME280;6524;51.368;11.984;2024-01-30T12:08:32;154117.06;;;9.75;47.64
12913;BME280;6524;51.368;11.984;2024-01-30T12:13:33;154130.13;;;9.80;46.86
12913;BME280;6524;51.368;11.984;2024-01-30T12:18:37;154390.97;;;10.82;45.21
12913;BME280;6524;51.368;11.984;2024-01-30T12:24:03;154328.34;;;10.58;45.67
12913;BME280;6524;51.368;11.984;2024-01-30T12:29:14;154353.13;;;10.68;45.55
12913;BME280;6524;51.368;11.984;2024-01-30T12:34:14;154289.19;;;10.42;45.29
12913;BME280;6524;51.368;11.984;2024-01-30T12:39:17;154203.13;;;10.09;46.46
12913;BME280;6524;51.368;11.984;2024-01-30T12:44:18;154283.97;;;10.40;46.37
12913;BME280;6524;51.368;11.984;2024-01-30T12:49:19;154221.38;;;10.16;46.77
12913;BME280;6524;51.368;11.984;2024-01-30T12:54:19;154338.75;;;10.62;46.37
12913;BME280;6524;51.368;11.984;2024-01-30T12:59:20;154542.31;;;11.42;44.86
12913;BME280;6524;51.368;11.984;2024-01-30T13:04:20;154439.22;;;11.01;45.09
12913;BME280;6524;51.368;11.984;2024-01-30T13:09:21;154377.94;;;10.77;45.78
12913;BME280;6524;51.368;11.984;2024-01-30T13:14:21;154383.13;;;10.79;46.13
12913;BME280;6524;51.368;11.984;2024-01-30T13:19:22;154474.50;;;11.15;45.73
12913;BME280;6524;51.368;11.984;2024-01-30T13:24:23;154471.84;;;11.14;45.96
12913;BME280;6524;51.368;11.984;2024-01-30T13:29:23;154542.31;;;11.42;45.66
12913;BME280;6524;51.368;11.984;2024-01-30T13:34:24;154453.59;;;11.07;46.82
12913;BME280;6524;51.368;11.984;2024-01-30T13:39:25;154478.38;;;11.17;46.84
12913;BME280;6524;51.368;11.984;2024-01-30T13:44:26;154422.28;;;10.95;47.89
12913;BME280;6524;51.368;11.984;2024-01-30T13:49:27;154469.25;;;11.13;47.58
12913;BME280;6524;51.368;11.984;2024-01-30T13:54:27;154445.75;;;11.04;48.32
12913;BME280;6524;51.368;11.984;2024-01-30T13:59:28;154396.19;;;10.84;49.24
12913;BME280;6524;51.368;11.984;2024-01-30T14:04:29;154383.13;;;10.79;49.31
12913;BME280;6524;51.368;11.984;2024-01-30T14:09:29;154330.94;;;10.59;50.02
12913;BME280;6524;51.368;11.984;2024-01-30T14:14:30;154190.06;;;10.04;52.29
12913;BME280;6524;51.368;11.984;2024-01-30T14:19:30;154257.91;;;10.30;52.75
12913;BME280;6524;51.368;11.984;2024-01-30T14:24:31;154174.41;;;9.98;54.46
12913;BME280;6524;51.368;11.984;2024-01-30T14:29:31;154192.72;;;10.05;54.84
12913;BME280;6524;51.368;11.984;2024-01-30T14:34:33;154213.53;;;10.13;55.41
12913;BME280;6524;51.368;11.984;2024-01-30T14:39:35;154100.13;;;9.68;55.96
12913;BME280;6524;51.368;11.984;2024-01-30T14:44:37;154153.59;;;9.89;55.52
12913;BME280;6524;51.368;11.984;2024-01-30T14:49:38;154132.72;;;9.81;55.52
12913;BME280;6524;51.368;11.984;2024-01-30T14:54:38;154118.38;;;9.76;55.16
12913;BME280;6524;51.368;11.984;2024-01-30T14:59:38;153943.66;;;9.07;56.89
12913;BME280;6524;51.368;11.984;2024-01-30T15:04:39;153963.25;;;9.15;56.71
12913;BME280;6524;51.368;11.984;2024-01-30T15:09:39;154012.75;;;9.34;56.15
12913;BME280;6524;51.368;11.984;2024-01-30T15:14:40;153973.66;;;9.19;56.50
12913;BME280;6524;51.368;11.984;2024-01-30T15:19:41;153947.59;;;9.09;56.72
12913;BME280;6524;51.368;11.984;2024-01-30T15:24:41;153978.88;;;9.21;56.51
12913;BME280;6524;51.368;11.984;2024-01-30T15:29:45;153921.56;;;8.98;56.83
12913;BME280;6524;51.368;11.984;2024-01-30T15:34:46;153908.50;;;8.93;57.46
12913;BME280;6524;51.368;11.984;2024-01-30T15:39:46;153898.09;;;8.89;57.52
12913;BME280;6524;51.368;11.984;2024-01-30T15:44:47;153892.88;;;8.87;57.26
12913;BME280;6524;51.368;11.984;2024-01-30T15:49:47;153814.72;;;8.56;58.16
12913;BME280;6524;51.368;11.984;2024-01-30T15:54:48;153756.06;;;8.33;59.02
12913;BME280;6524;51.368;11.984;2024-01-30T15:59:49;153767.78;;;8.38;58.96
12913;BME280;6524;51.368;11.984;2024-01-30T16:04:50;153746.97;;;8.30;58.70
12913;BME280;6524;51.368;11.984;2024-01-30T16:09:51;153681.88;;;8.04;58.99
12913;BME280;6524;51.368;11.984;2024-01-30T16:14:51;153694.88;;;8.09;59.28
12913;BME280;6524;51.368;11.984;2024-01-30T16:19:52;153700.09;;;8.11;59.20
12913;BME280;6524;51.368;11.984;2024-01-30T16:24:55;153692.28;;;8.08;59.04
12913;BME280;6524;51.368;11.984;2024-01-30T16:29:56;153688.34;;;8.07;59.15
12913;BME280;6524;51.368;11.984;2024-01-30T16:34:57;153661.03;;;7.96;59.24
12913;BME280;6524;51.368;11.984;2024-01-30T16:39:59;153608.97;;;7.76;60.36
12913;BME280;6524;51.368;11.984;2024-01-30T16:45:00;153577.75;;;7.63;60.65
12913;BME280;6524;51.368;11.984;2024-01-30T16:50:04;153499.66;;;7.33;61.43
12913;BME280;6524;51.368;11.984;2024-01-30T16:55:05;153512.63;;;7.38;61.16
12913;BME280;6524;51.368;11.984;2024-01-30T17:00:07;153580.31;;;7.64;60.32
12913;BME280;6524;51.368;11.984;2024-01-30T17:05:10;153538.69;;;7.48;60.19
12913;BME280;6524;51.368;11.984;2024-01-30T17:10:11;153486.59;;;7.28;60.76
12913;BME280;6524;51.368;11.984;2024-01-30T17:15:13;153499.66;;;7.33;61.00
12913;BME280;6524;51.368;11.984;2024-01-30T17:20:16;153493.13;;;7.30;61.27
12913;BME280;6524;51.368;11.984;2024-01-30T17:25:16;153513.97;;;7.38;61.14
12913;BME280;6524;51.368;11.984;2024-01-30T17:30:21;153489.25;;;7.29;61.44
12913;BME280;6524;51.368;11.984;2024-01-30T17:35:22;153444.94;;;7.11;62.06
12913;BME280;6524;51.368;11.984;2024-01-30T17:40:22;153437.13;;;7.08;62.54
12913;BME280;6524;51.368;11.984;2024-01-30T17:45:23;153481.44;;;7.26;61.52
12913;BME280;6524;51.368;11.984;2024-01-30T17:50:23;153473.59;;;7.23;61.64
12913;BME280;6524;51.368;11.984;2024-01-30T17:55:24;153439.72;;;7.09;61.56
12913;BME280;6524;51.368;11.984;2024-01-30T18:00:24;153372.09;;;6.83;62.06
12913;BME280;6524;51.368;11.984;2024-01-30T18:05:25;153335.66;;;6.68;62.42
12913;BME280;6524;51.368;11.984;2024-01-30T18:10:26;153390.28;;;6.90;62.20
12913;BME280;6524;51.368;11.984;2024-01-30T18:15:26;153398.09;;;6.93;62.01
12913;BME280;6524;51.368;11.984;2024-01-30T18:20:27;153385.06;;;6.88;61.86
12913;BME280;6524;51.368;11.984;2024-01-30T18:25:27;153309.66;;;6.58;62.54
12913;BME280;6524;51.368;11.984;2024-01-30T18:30:28;153435.84;;;7.08;61.51
12913;BME280;6524;51.368;11.984;2024-01-30T18:35:28;153416.28;;;7.00;62.17
12913;BME280;6524;51.368;11.984;2024-01-30T18:40:29;153351.25;;;6.74;62.66
12913;BME280;6524;51.368;11.984;2024-01-30T18:45:30;153351.25;;;6.74;63.21
12913;BME280;6524;51.368;11.984;2024-01-30T18:50:30;153343.47;;;6.71;63.30
12913;BME280;6524;51.368;11.984;2024-01-30T18:55:31;153317.47;;;6.61;63.47
12913;BME280;6524;51.368;11.984;2024-01-30T19:00:33;153314.88;;;6.60;63.72
12913;BME280;6524;51.368;11.984;2024-01-30T19:05:36;153331.78;;;6.67;63.60
12913;BME280;6524;51.368;11.984;2024-01-30T19:10:36;153318.75;;;6.62;64.17
12913;BME280;6524;51.368;11.984;2024-01-30T19:15:37;153335.66;;;6.68;63.83
12913;BME280;6524;51.368;11.984;2024-01-30T19:20:38;153386.41;;;6.88;63.55
12913;BME280;6524;51.368;11.984;2024-01-30T19:25:38;153381.19;;;6.86;63.49
12913;BME280;6524;51.368;11.984;2024-01-30T19:30:39;153450.16;;;7.13;63.29
12913;BME280;6524;51.368;11.984;2024-01-30T19:35:40;153486.59;;;7.28;62.68
12913;BME280;6524;51.368;11.984;2024-01-30T19:40:40;153530.88;;;7.45;61.86
12913;BME280;6524;51.368;11.984;2024-01-30T19:45:41;153581.63;;;7.65;61.17
12913;BME280;6524;51.368;11.984;2024-01-30T19:50:42;153558.19;;;7.56;61.27
12913;BME280;6524;51.368;11.984;2024-01-30T19:55:42;153593.34;;;7.70;60.36
12913;BME280;6524;51.368;11.984;2024-01-30T20:00:43;153530.88;;;7.45;61.47
12913;BME280;6524;51.368;11.984;2024-01-30T20:05:44;153549.09;;;7.52;61.39
12913;BME280;6524;51.368;11.984;2024-01-30T20:10:44;153555.59;;;7.55;61.24
12913;BME280;6524;51.368;11.984;2024-01-30T20:15:45;153523.06;;;7.42;61.36
12913;BME280;6524;51.368;11.984;2024-01-30T20:20:45;153533.47;;;7.46;62.02
12913;BME280;6524;51.368;11.984;2024-01-30T20:25:46;153474.88;;;7.23;62.37
12913;BME280;6524;51.368;11.984;2024-01-30T20:30:47;153463.13;;;7.18;62.30
12913;BME280;6524;51.368;11.984;2024-01-30T20:35:47;153470.94;;;7.22;62.41
12913;BME280;6524;51.368;11.984;2024-01-30T20:40:48;153434.53;;;7.07;63.43
12913;BME280;6524;51.368;11.984;2024-01-30T20:45:49;153450.16;;;7.13;63.25
12913;BME280;6524;51.368;11.984;2024-01-30T20:50:49;153439.72;;;7.09;63.65
12913;BME280;6524;51.368;11.984;2024-01-30T20:55:52;153450.16;;;7.13;63.32
12913;BME280;6524;51.368;11.984;2024-01-30T21:00:54;153484.03;;;7.27;62.86
12913;BME280;6524;51.368;11.984;2024-01-30T21:05:55;153468.34;;;7.20;62.78
12913;BME280;6524;51.368;11.984;2024-01-30T21:10:55;153392.88;;;6.91;64.37
12913;BME280;6524;51.368;11.984;2024-01-30T21:15:56;153395.50;;;6.92;64.31
12913;BME280;6524;51.368;11.984;2024-01-30T21:20:57;153359.06;;;6.78;64.29
12913;BME280;6524;51.368;11.984;2024-01-30T21:25:58;153321.34;;;6.63;65.02
12913;BME280;6524;51.368;11.984;2024-01-30T21:30:59;153275.84;;;6.45;65.89
12913;BME280;6524;51.368;11.984;2024-01-30T21:36:01;153318.75;;;6.62;65.44
12913;BME280;6524;51.368;11.984;2024-01-30T21:41:02;153320.03;;;6.62;65.63
12913;BME280;6524;51.368;11.984;2024-01-30T21:46:03;153322.69;;;6.63;65.76
12913;BME280;6524;51.368;11.984;2024-01-30T21:51:07;153364.28;;;6.80;64.96
12913;BME280;6524;51.368;11.984;2024-01-30T21:56:07;153331.78;;;6.67;65.63
12913;BME280;6524;51.368;11.984;2024-01-30T22:01:08;153365.59;;;6.80;65.53
12913;BME280;6524;51.368;11.984;2024-01-30T22:06:09;153424.09;;;7.03;64.36
12913;BME280;6524;51.368;11.984;2024-01-30T22:11:09;153403.31;;;6.95;64.87
12913;BME280;6524;51.368;11.984;2024-01-30T22:16:10;153413.72;;;6.99;64.89
12913;BME280;6524;51.368;11.984;2024-01-30T22:21:11;153416.28;;;7.00;64.90
12913;BME280;6524;51.368;11.984;2024-01-30T22:26:15;153421.50;;;7.02;64.89
12913;BME280;6524;51.368;11.984;2024-01-30T22:31:16;153364.28;;;6.80;66.57
12913;BME280;6524;51.368;11.984;2024-01-30T22:36:16;153364.28;;;6.80;66.90
12913;BME280;6524;51.368;11.984;2024-01-30T22:41:24;153413.72;;;6.99;66.52
12913;BME280;6524;51.368;11.984;2024-01-30T22:46:25;153439.72;;;7.09;66.00
12913;BME280;6524;51.368;11.984;2024-01-30T22:51:26;153504.81;;;7.35;65.13
12913;BME280;6524;51.368;11.984;2024-01-30T22:56:28;153493.13;;;7.30;65.64
12913;BME280;6524;51.368;11.984;2024-01-30T23:01:28;153437.13;;;7.08;65.95
12913;BME280;6524;51.368;11.984;2024-01-30T23:06:29;153500.94;;;7.33;65.17
12913;BME280;6524;51.368;11.984;2024-01-30T23:11:30;153513.97;;;7.38;64.73
12913;BME280;6524;51.368;11.984;2024-01-30T23:16:30;153494.41;;;7.31;64.95
12913;BME280;6524;51.368;11.984;2024-01-30T23:21:31;153486.59;;;7.28;65.19
12913;BME280;6524;51.368;11.984;2024-01-30T23:26:32;153465.78;;;7.19;65.36
12913;BME280;6524;51.368;11.984;2024-01-30T23:31:32;153443.66;;;7.11;65.75
12913;BME280;6524;51.368;11.984;2024-01-30T23:36:39;153439.72;;;7.09;66.57
12913;BME280;6524;51.368;11.984;2024-01-30T23:41:39;153404.59;;;6.95;67.12
12913;BME280;6524;51.368;11.984;2024-01-30T23:46:40;153415.00;;;7.00;66.97
12913;BME280;6524;51.368;11.984;2024-01-30T23:51:40;153403.31;;;6.95;67.11
12913;BME280;6524;51.368;11.984;2024-01-30T23:56:42;153421.50;;;7.02;66.25
